Terminal Aerodrome Forecast
Issued by NWS Charleston, WV

Current Version | Previous Version | Graphics & Text | Print | Product List | Glossary Off
Versions: 1 2 3 4 5 6 7 8 9 10 11 12 13 14 15 16 17 18 19 20 21 22

374
FTUS41 KRLX 051720
TAFHTS
TAF
KHTS 051720Z 0518/0618 30004KT P6SM SKC
     FM061200 VRB03KT P6SM BKN045
     FM061400 22005KT P6SM SCT045
     FM061700 24006KT P6SM BKN200=

USA.gov is the U.S. government's official web portal to all federal, state and local government web resources and services.